sensor_id;sensor_type;location;lat;lon;timestamp;P1;durP1;ratioP1;P2;durP2;ratioP2
49193;SDS011;35029;50.804;12.866;2022-07-23T00:01:02;6.75;;;3.97;;
49193;SDS011;35029;50.804;12.866;2022-07-23T00:03:27;4.78;;;4.35;;
49193;SDS011;35029;50.804;12.866;2022-07-23T00:05:53;4.78;;;4.32;;
49193;SDS011;35029;50.804;12.866;2022-07-23T00:08:18;5.45;;;4.95;;
49193;SDS011;35029;50.804;12.866;2022-07-23T00:10:44;5.22;;;4.18;;
49193;SDS011;35029;50.804;12.866;2022-07-23T00:13:09;8.40;;;4.25;;
49193;SDS011;35029;50.804;12.866;2022-07-23T00:15:35;5.15;;;4.65;;
49193;SDS011;35029;50.804;12.866;2022-07-23T00:18:00;11.57;;;4.88;;
49193;SDS011;35029;50.804;12.866;2022-07-23T00:20:26;8.38;;;4.75;;
49193;SDS011;35029;50.804;12.866;2022-07-23T00:22:52;5.82;;;4.95;;
49193;SDS011;35029;50.804;12.866;2022-07-23T00:25:20;5.35;;;4.60;;
49193;SDS011;35029;50.804;12.866;2022-07-23T00:27:47;6.00;;;4.68;;
49193;SDS011;35029;50.804;12.866;2022-07-23T00:30:13;8.23;;;4.82;;
49193;SDS011;35029;50.804;12.866;2022-07-23T00:32:46;5.97;;;5.22;;
49193;SDS011;35029;50.804;12.866;2022-07-23T00:35:13;6.22;;;4.55;;
49193;SDS011;35029;50.804;12.866;2022-07-23T00:37:38;6.25;;;4.80;;
49193;SDS011;35029;50.804;12.866;2022-07-23T00:40:04;6.03;;;4.57;;
49193;SDS011;35029;50.804;12.866;2022-07-23T00:42:33;4.60;;;4.20;;
49193;SDS011;35029;50.804;12.866;2022-07-23T00:44:58;6.80;;;4.35;;
49193;SDS011;35029;50.804;12.866;2022-07-23T00:47:25;8.50;;;4.40;;
49193;SDS011;35029;50.804;12.866;2022-07-23T00:49:51;7.18;;;4.50;;
49193;SDS011;35029;50.804;12.866;2022-07-23T00:52:16;7.78;;;4.07;;
49193;SDS011;35029;50.804;12.866;2022-07-23T00:54:42;5.53;;;4.68;;
49193;SDS011;35029;50.804;12.866;2022-07-23T00:57:08;7.80;;;4.90;;
49193;SDS011;35029;50.804;12.866;2022-07-23T00:59:34;7.43;;;4.57;;
49193;SDS011;35029;50.804;12.866;2022-07-23T01:02:00;6.78;;;4.32;;
49193;SDS011;35029;50.804;12.866;2022-07-23T01:04:25;9.57;;;4.72;;
49193;SDS011;35029;50.804;12.866;2022-07-23T01:06:51;5.18;;;4.18;;
49193;SDS011;35029;50.804;12.866;2022-07-23T01:09:17;7.30;;;4.55;;
49193;SDS011;35029;50.804;12.866;2022-07-23T01:11:43;7.65;;;4.30;;
49193;SDS011;35029;50.804;12.866;2022-07-23T01:14:09;6.22;;;4.03;;
49193;SDS011;35029;50.804;12.866;2022-07-23T01:16:36;6.22;;;4.30;;
49193;SDS011;35029;50.804;12.866;2022-07-23T01:19:01;5.70;;;4.30;;
49193;SDS011;35029;50.804;12.866;2022-07-23T01:21:28;4.75;;;4.25;;
49193;SDS011;35029;50.804;12.866;2022-07-23T01:23:55;8.30;;;4.45;;
49193;SDS011;35029;50.804;12.866;2022-07-23T01:26:21;7.22;;;4.75;;
49193;SDS011;35029;50.804;12.866;2022-07-23T01:28:46;5.10;;;4.47;;
49193;SDS011;35029;50.804;12.866;2022-07-23T01:31:12;4.90;;;4.38;;
49193;SDS011;35029;50.804;12.866;2022-07-23T01:33:37;4.50;;;4.10;;
49193;SDS011;35029;50.804;12.866;2022-07-23T01:36:03;5.03;;;4.53;;
49193;SDS011;35029;50.804;12.866;2022-07-23T01:38:29;4.90;;;4.40;;
49193;SDS011;35029;50.804;12.866;2022-07-23T01:40:54;4.60;;;4.10;;
49193;SDS011;35029;50.804;12.866;2022-07-23T01:43:21;4.80;;;4.22;;
49193;SDS011;35029;50.804;12.866;2022-07-23T01:45:46;5.20;;;4.70;;
49193;SDS011;35029;50.804;12.866;2022-07-23T01:48:13;6.57;;;4.32;;
49193;SDS011;35029;50.804;12.866;2022-07-23T01:50:46;5.05;;;4.55;;
49193;SDS011;35029;50.804;12.866;2022-07-23T01:53:38;7.30;;;4.38;;
49193;SDS011;35029;50.804;12.866;2022-07-23T01:56:03;4.97;;;4.57;;
49193;SDS011;35029;50.804;12.866;2022-07-23T01:58:29;5.15;;;4.05;;
49193;SDS011;35029;50.804;12.866;2022-07-23T02:00:55;5.82;;;4.68;;
49193;SDS011;35029;50.804;12.866;2022-07-23T02:03:22;6.32;;;4.55;;
49193;SDS011;35029;50.804;12.866;2022-07-23T02:05:48;6.13;;;4.53;;
49193;SDS011;35029;50.804;12.866;2022-07-23T02:08:14;4.88;;;4.10;;
49193;SDS011;35029;50.804;12.866;2022-07-23T02:10:39;7.78;;;4.90;;
49193;SDS011;35029;50.804;12.866;2022-07-23T02:13:05;4.25;;;3.85;;
49193;SDS011;35029;50.804;12.866;2022-07-23T02:15:31;5.15;;;4.65;;
49193;SDS011;35029;50.804;12.866;2022-07-23T02:17:57;9.75;;;4.22;;
49193;SDS011;35029;50.804;12.866;2022-07-23T02:20:23;6.03;;;4.47;;
49193;SDS011;35029;50.804;12.866;2022-07-23T02:22:49;4.05;;;3.65;;
49193;SDS011;35029;50.804;12.866;2022-07-23T02:25:15;5.93;;;4.25;;
49193;SDS011;35029;50.804;12.866;2022-07-23T02:27:41;4.75;;;4.35;;
49193;SDS011;35029;50.804;12.866;2022-07-23T02:30:07;6.35;;;4.43;;
49193;SDS011;35029;50.804;12.866;2022-07-23T02:32:33;4.55;;;4.15;;
49193;SDS011;35029;50.804;12.866;2022-07-23T02:34:59;7.13;;;4.60;;
49193;SDS011;35029;50.804;12.866;2022-07-23T02:37:25;5.70;;;3.95;;
49193;SDS011;35029;50.804;12.866;2022-07-23T02:39:50;5.82;;;4.40;;
49193;SDS011;35029;50.804;12.866;2022-07-23T02:42:16;4.68;;;4.00;;
49193;SDS011;35029;50.804;12.866;2022-07-23T02:44:44;6.07;;;4.35;;
49193;SDS011;35029;50.804;12.866;2022-07-23T02:47:09;5.10;;;4.60;;
49193;SDS011;35029;50.804;12.866;2022-07-23T02:49:35;8.85;;;3.90;;
49193;SDS011;35029;50.804;12.866;2022-07-23T02:52:03;4.60;;;4.20;;
49193;SDS011;35029;50.804;12.866;2022-07-23T02:54:29;4.38;;;3.95;;
49193;SDS011;35029;50.804;12.866;2022-07-23T02:56:55;4.82;;;4.25;;
49193;SDS011;35029;50.804;12.866;2022-07-23T02:59:20;4.22;;;3.85;;
49193;SDS011;35029;50.804;12.866;2022-07-23T03:01:46;4.53;;;4.03;;
49193;SDS011;35029;50.804;12.866;2022-07-23T03:04:12;5.68;;;4.63;;
49193;SDS011;35029;50.804;12.866;2022-07-23T03:06:40;4.65;;;4.25;;
49193;SDS011;35029;50.804;12.866;2022-07-23T03:09:06;6.30;;;5.07;;
49193;SDS011;35029;50.804;12.866;2022-07-23T03:11:31;7.07;;;4.57;;
49193;SDS011;35029;50.804;12.866;2022-07-23T03:13:57;5.82;;;4.30;;
49193;SDS011;35029;50.804;12.866;2022-07-23T03:16:22;6.18;;;4.90;;
49193;SDS011;35029;50.804;12.866;2022-07-23T03:18:49;8.32;;;4.72;;
49193;SDS011;35029;50.804;12.866;2022-07-23T03:21:14;5.15;;;4.38;;
49193;SDS011;35029;50.804;12.866;2022-07-23T03:23:40;6.88;;;4.80;;
49193;SDS011;35029;50.804;12.866;2022-07-23T03:26:06;4.97;;;4.53;;
49193;SDS011;35029;50.804;12.866;2022-07-23T03:28:32;6.88;;;5.47;;
49193;SDS011;35029;50.804;12.866;2022-07-23T03:30:57;5.15;;;4.65;;
49193;SDS011;35029;50.804;12.866;2022-07-23T03:33:23;4.75;;;4.35;;
49193;SDS011;35029;50.804;12.866;2022-07-23T03:35:48;7.32;;;4.72;;
49193;SDS011;35029;50.804;12.866;2022-07-23T03:38:26;5.75;;;4.40;;
49193;SDS011;35029;50.804;12.866;2022-07-23T03:40:52;6.53;;;5.05;;
49193;SDS011;35029;50.804;12.866;2022-07-23T03:43:18;5.30;;;4.80;;
49193;SDS011;35029;50.804;12.866;2022-07-23T03:45:44;6.85;;;4.90;;
49193;SDS011;35029;50.804;12.866;2022-07-23T03:48:10;5.70;;;4.68;;
49193;SDS011;35029;50.804;12.866;2022-07-23T03:50:35;5.78;;;5.10;;
49193;SDS011;35029;50.804;12.866;2022-07-23T03:53:02;6.25;;;5.63;;
49193;SDS011;35029;50.804;12.866;2022-07-23T03:55:28;6.35;;;5.47;;
49193;SDS011;35029;50.804;12.866;2022-07-23T03:57:53;11.15;;;5.85;;
49193;SDS011;35029;50.804;12.866;2022-07-23T04:00:19;7.72;;;5.40;;
49193;SDS011;35029;50.804;12.866;2022-07-23T04:02:48;7.95;;;5.72;;
49193;SDS011;35029;50.804;12.866;2022-07-23T04:05:15;6.47;;;5.97;;
49193;SDS011;35029;50.804;12.866;2022-07-23T04:07:42;5.72;;;5.00;;
49193;SDS011;35029;50.804;12.866;2022-07-23T04:10:08;5.70;;;5.10;;
49193;SDS011;35029;50.804;12.866;2022-07-23T04:12:34;6.43;;;5.63;;
49193;SDS011;35029;50.804;12.866;2022-07-23T04:14:59;6.13;;;5.53;;
49193;SDS011;35029;50.804;12.866;2022-07-23T04:17:25;6.10;;;5.60;;
49193;SDS011;35029;50.804;12.866;2022-07-23T04:19:50;5.95;;;5.28;;
49193;SDS011;35029;50.804;12.866;2022-07-23T04:22:20;5.43;;;4.90;;
49193;SDS011;35029;50.804;12.866;2022-07-23T04:24:46;5.53;;;5.03;;
49193;SDS011;35029;50.804;12.866;2022-07-23T04:27:11;7.03;;;5.15;;
49193;SDS011;35029;50.804;12.866;2022-07-23T04:29:37;6.05;;;5.55;;
49193;SDS011;35029;50.804;12.866;2022-07-23T04:32:03;5.97;;;5.40;;
49193;SDS011;35029;50.804;12.866;2022-07-23T04:34:28;5.93;;;5.43;;
49193;SDS011;35029;50.804;12.866;2022-07-23T04:36:54;8.43;;;5.55;;
49193;SDS011;35029;50.804;12.866;2022-07-23T04:39:20;6.40;;;5.80;;
49193;SDS011;35029;50.804;12.866;2022-07-23T04:41:46;6.70;;;5.55;;
49193;SDS011;35029;50.804;12.866;2022-07-23T04:44:12;6.72;;;6.03;;
49193;SDS011;35029;50.804;12.866;2022-07-23T04:46:38;6.97;;;5.80;;
49193;SDS011;35029;50.804;12.866;2022-07-23T04:49:05;7.00;;;5.82;;
49193;SDS011;35029;50.804;12.866;2022-07-23T04:51:31;6.57;;;5.97;;
49193;SDS011;35029;50.804;12.866;2022-07-23T04:53:57;6.50;;;5.75;;
49193;SDS011;35029;50.804;12.866;2022-07-23T04:56:22;6.47;;;5.75;;
49193;SDS011;35029;50.804;12.866;2022-07-23T04:58:48;6.78;;;6.18;;
49193;SDS011;35029;50.804;12.866;2022-07-23T05:01:14;6.93;;;6.32;;
49193;SDS011;35029;50.804;12.866;2022-07-23T05:03:39;8.25;;;6.47;;
49193;SDS011;35029;50.804;12.866;2022-07-23T05:06:05;8.68;;;6.93;;
49193;SDS011;35029;50.804;12.866;2022-07-23T05:08:30;10.07;;;6.20;;
49193;SDS011;35029;50.804;12.866;2022-07-23T05:10:57;7.15;;;6.30;;
49193;SDS011;35029;50.804;12.866;2022-07-23T05:13:23;7.97;;;7.13;;
49193;SDS011;35029;50.804;12.866;2022-07-23T05:15:52;9.23;;;6.38;;
49193;SDS011;35029;50.804;12.866;2022-07-23T05:18:18;8.02;;;7.32;;
49193;SDS011;35029;50.804;12.866;2022-07-23T05:20:43;7.63;;;6.82;;
49193;SDS011;35029;50.804;12.866;2022-07-23T05:23:12;7.70;;;6.93;;
49193;SDS011;35029;50.804;12.866;2022-07-23T05:25:37;8.35;;;7.55;;
49193;SDS011;35029;50.804;12.866;2022-07-23T05:28:03;9.23;;;8.43;;
49193;SDS011;35029;50.804;12.866;2022-07-23T05:30:29;8.10;;;7.38;;
49193;SDS011;35029;50.804;12.866;2022-07-23T05:32:58;15.35;;;8.68;;
49193;SDS011;35029;50.804;12.866;2022-07-23T05:35:24;9.63;;;8.65;;
49193;SDS011;35029;50.804;12.866;2022-07-23T05:38:10;11.88;;;7.80;;
49193;SDS011;35029;50.804;12.866;2022-07-23T05:40:36;13.63;;;8.27;;
49193;SDS011;35029;50.804;12.866;2022-07-23T05:43:02;11.15;;;8.77;;
49193;SDS011;35029;50.804;12.866;2022-07-23T05:45:28;7.80;;;6.85;;
49193;SDS011;35029;50.804;12.866;2022-07-23T05:47:53;8.85;;;8.10;;
49193;SDS011;35029;50.804;12.866;2022-07-23T05:50:27;9.35;;;8.15;;
49193;SDS011;35029;50.804;12.866;2022-07-23T05:53:00;8.75;;;7.95;;
49193;SDS011;35029;50.804;12.866;2022-07-23T05:55:29;11.00;;;7.88;;
49193;SDS011;35029;50.804;12.866;2022-07-23T05:57:57;9.65;;;8.30;;
49193;SDS011;35029;50.804;12.866;2022-07-23T06:00:24;8.40;;;7.60;;
49193;SDS011;35029;50.804;12.866;2022-07-23T06:02:49;8.88;;;8.05;;
49193;SDS011;35029;50.804;12.866;2022-07-23T06:05:16;10.65;;;8.60;;
49193;SDS011;35029;50.804;12.866;2022-07-23T06:07:43;9.27;;;8.35;;
49193;SDS011;35029;50.804;12.866;2022-07-23T06:10:09;9.13;;;7.65;;
49193;SDS011;35029;50.804;12.866;2022-07-23T06:12:35;11.43;;;7.35;;
49193;SDS011;35029;50.804;12.866;2022-07-23T06:15:00;8.43;;;7.38;;
49193;SDS011;35029;50.804;12.866;2022-07-23T06:17:26;10.30;;;7.93;;
49193;SDS011;35029;50.804;12.866;2022-07-23T06:19:52;11.30;;;8.10;;
49193;SDS011;35029;50.804;12.866;2022-07-23T06:22:18;8.93;;;7.55;;
49193;SDS011;35029;50.804;12.866;2022-07-23T06:24:45;8.60;;;7.78;;
49193;SDS011;35029;50.804;12.866;2022-07-23T06:27:10;11.05;;;7.45;;
49193;SDS011;35029;50.804;12.866;2022-07-23T06:29:36;8.45;;;7.65;;
49193;SDS011;35029;50.804;12.866;2022-07-23T06:32:02;10.35;;;7.22;;
49193;SDS011;35029;50.804;12.866;2022-07-23T06:34:27;9.40;;;8.40;;
49193;SDS011;35029;50.804;12.866;2022-07-23T06:36:54;9.95;;;7.60;;
49193;SDS011;35029;50.804;12.866;2022-07-23T06:39:20;8.23;;;7.38;;
49193;SDS011;35029;50.804;12.866;2022-07-23T06:41:47;10.02;;;8.63;;
49193;SDS011;35029;50.804;12.866;2022-07-23T06:44:13;10.80;;;8.45;;
49193;SDS011;35029;50.804;12.866;2022-07-23T06:46:40;10.77;;;8.38;;
49193;SDS011;35029;50.804;12.866;2022-07-23T06:49:06;8.95;;;8.05;;
49193;SDS011;35029;50.804;12.866;2022-07-23T06:51:31;9.13;;;8.23;;
49193;SDS011;35029;50.804;12.866;2022-07-23T06:54:00;9.05;;;8.15;;
49193;SDS011;35029;50.804;12.866;2022-07-23T06:56:26;8.88;;;7.25;;
49193;SDS011;35029;50.804;12.866;2022-07-23T06:58:53;13.15;;;7.63;;
49193;SDS011;35029;50.804;12.866;2022-07-23T07:01:18;7.70;;;6.97;;
49193;SDS011;35029;50.804;12.866;2022-07-23T07:03:44;8.20;;;7.15;;
49193;SDS011;35029;50.804;12.866;2022-07-23T07:06:10;7.45;;;6.60;;
49193;SDS011;35029;50.804;12.866;2022-07-23T07:08:35;10.77;;;6.90;;
49193;SDS011;35029;50.804;12.866;2022-07-23T07:11:01;10.63;;;7.93;;
49193;SDS011;35029;50.804;12.866;2022-07-23T07:13:28;6.75;;;6.05;;
49193;SDS011;35029;50.804;12.866;2022-07-23T07:15:53;8.93;;;7.03;;
49193;SDS011;35029;50.804;12.866;2022-07-23T07:18:18;8.85;;;6.60;;
49193;SDS011;35029;50.804;12.866;2022-07-23T07:20:44;8.27;;;6.93;;
49193;SDS011;35029;50.804;12.866;2022-07-23T07:23:09;7.18;;;6.28;;
49193;SDS011;35029;50.804;12.866;2022-07-23T07:25:35;10.45;;;7.30;;
49193;SDS011;35029;50.804;12.866;2022-07-23T07:28:01;9.15;;;7.13;;
49193;SDS011;35029;50.804;12.866;2022-07-23T07:30:26;8.38;;;7.00;;
49193;SDS011;35029;50.804;12.866;2022-07-23T07:32:52;7.55;;;6.85;;
49193;SDS011;35029;50.804;12.866;2022-07-23T07:35:17;9.05;;;7.53;;
49193;SDS011;35029;50.804;12.866;2022-07-23T07:37:43;9.30;;;8.32;;
49193;SDS011;35029;50.804;12.866;2022-07-23T07:40:08;9.77;;;8.68;;
49193;SDS011;35029;50.804;12.866;2022-07-23T07:42:34;8.18;;;6.93;;
49193;SDS011;35029;50.804;12.866;2022-07-23T07:45:00;8.60;;;7.55;;
49193;SDS011;35029;50.804;12.866;2022-07-23T07:47:26;13.00;;;7.28;;
49193;SDS011;35029;50.804;12.866;2022-07-23T07:49:51;9.48;;;7.72;;
49193;SDS011;35029;50.804;12.866;2022-07-23T07:52:17;8.63;;;7.53;;
49193;SDS011;35029;50.804;12.866;2022-07-23T07:54:42;7.90;;;7.18;;
49193;SDS011;35029;50.804;12.866;2022-07-23T07:57:09;8.30;;;7.38;;
49193;SDS011;35029;50.804;12.866;2022-07-23T07:59:34;7.45;;;6.75;;
49193;SDS011;35029;50.804;12.866;2022-07-23T08:02:00;9.73;;;6.78;;
49193;SDS011;35029;50.804;12.866;2022-07-23T08:04:25;10.25;;;7.60;;
49193;SDS011;35029;50.804;12.866;2022-07-23T08:06:51;7.50;;;6.75;;
49193;SDS011;35029;50.804;12.866;2022-07-23T08:09:16;7.70;;;6.57;;
49193;SDS011;35029;50.804;12.866;2022-07-23T08:11:42;11.63;;;7.53;;
49193;SDS011;35029;50.804;12.866;2022-07-23T08:14:07;6.88;;;6.20;;
49193;SDS011;35029;50.804;12.866;2022-07-23T08:16:34;8.27;;;6.40;;
49193;SDS011;35029;50.804;12.866;2022-07-23T08:19:00;9.38;;;7.18;;
49193;SDS011;35029;50.804;12.866;2022-07-23T08:21:25;6.88;;;6.20;;
49193;SDS011;35029;50.804;12.866;2022-07-23T08:23:51;8.07;;;7.25;;
49193;SDS011;35029;50.804;12.866;2022-07-23T08:26:16;7.70;;;6.38;;
49193;SDS011;35029;50.804;12.866;2022-07-23T08:28:42;6.88;;;6.20;;
49193;SDS011;35029;50.804;12.866;2022-07-23T08:31:07;9.10;;;7.63;;
49193;SDS011;35029;50.804;12.866;2022-07-23T08:33:33;8.30;;;7.30;;
49193;SDS011;35029;50.804;12.866;2022-07-23T08:35:58;8.48;;;7.10;;
49193;SDS011;35029;50.804;12.866;2022-07-23T08:38:25;6.88;;;6.10;;
49193;SDS011;35029;50.804;12.866;2022-07-23T08:40:52;9.35;;;7.53;;
49193;SDS011;35029;50.804;12.866;2022-07-23T08:43:21;7.10;;;6.50;;
49193;SDS011;35029;50.804;12.866;2022-07-23T08:45:52;8.13;;;7.32;;
49193;SDS011;35029;50.804;12.866;2022-07-23T08:48:23;7.95;;;7.03;;
49193;SDS011;35029;50.804;12.866;2022-07-23T08:50:53;10.02;;;7.60;;
49193;SDS011;35029;50.804;12.866;2022-07-23T08:53:21;7.15;;;6.25;;
49193;SDS011;35029;50.804;12.866;2022-07-23T08:55:48;7.72;;;6.32;;
49193;SDS011;35029;50.804;12.866;2022-07-23T08:58:15;7.03;;;6.25;;
49193;SDS011;35029;50.804;12.866;2022-07-23T09:00:41;7.30;;;6.53;;
49193;SDS011;35029;50.804;12.866;2022-07-23T09:03:07;8.57;;;7.43;;
49193;SDS011;35029;50.804;12.866;2022-07-23T09:05:41;8.00;;;7.22;;
49193;SDS011;35029;50.804;12.866;2022-07-23T09:08:07;7.32;;;6.70;;
49193;SDS011;35029;50.804;12.866;2022-07-23T09:13:26;8.93;;;6.82;;
49193;SDS011;35029;50.804;12.866;2022-07-23T09:16:02;7.07;;;6.43;;
49193;SDS011;35029;50.804;12.866;2022-07-23T09:23:39;7.38;;;6.57;;
49193;SDS011;35029;50.804;12.866;2022-07-23T09:29:10;7.60;;;6.68;;
49193;SDS011;35029;50.804;12.866;2022-07-23T09:31:57;12.05;;;7.28;;
49193;SDS011;35029;50.804;12.866;2022-07-23T09:36:52;6.35;;;5.75;;
49193;SDS011;35029;50.804;12.866;2022-07-23T09:39:30;7.13;;;6.53;;
49193;SDS011;35029;50.804;12.866;2022-07-23T09:41:58;9.52;;;6.63;;
49193;SDS011;35029;50.804;12.866;2022-07-23T09:44:45;7.00;;;6.30;;
49193;SDS011;35029;50.804;12.866;2022-07-23T09:47:12;7.63;;;6.57;;
49193;SDS011;35029;50.804;12.866;2022-07-23T09:49:38;9.93;;;7.95;;
49193;SDS011;35029;50.804;12.866;2022-07-23T09:52:04;7.45;;;6.13;;
49193;SDS011;35029;50.804;12.866;2022-07-23T09:54:35;7.03;;;6.10;;
49193;SDS011;35029;50.804;12.866;2022-07-23T09:57:03;14.73;;;7.32;;
49193;SDS011;35029;50.804;12.866;2022-07-23T09:59:37;8.93;;;8.02;;
49193;SDS011;35029;50.804;12.866;2022-07-23T10:02:05;7.90;;;6.65;;
49193;SDS011;35029;50.804;12.866;2022-07-23T10:04:41;6.70;;;5.65;;
49193;SDS011;35029;50.804;12.866;2022-07-23T10:07:17;6.57;;;5.88;;
49193;SDS011;35029;50.804;12.866;2022-07-23T10:10:04;7.95;;;6.57;;
49193;SDS011;35029;50.804;12.866;2022-07-23T10:12:54;18.83;;;13.35;;
49193;SDS011;35029;50.804;12.866;2022-07-23T10:15:41;7.38;;;6.40;;
49193;SDS011;35029;50.804;12.866;2022-07-23T10:18:09;7.82;;;6.50;;
49193;SDS011;35029;50.804;12.866;2022-07-23T10:20:36;10.77;;;9.07;;
49193;SDS011;35029;50.804;12.866;2022-07-23T10:23:08;11.18;;;9.65;;
49193;SDS011;35029;50.804;12.866;2022-07-23T10:31:47;14.90;;;6.43;;
49193;SDS011;35029;50.804;12.866;2022-07-23T10:40:08;9.15;;;6.35;;
49193;SDS011;35029;50.804;12.866;2022-07-23T10:42:35;7.97;;;6.60;;
49193;SDS011;35029;50.804;12.866;2022-07-23T10:45:01;7.38;;;6.32;;
49193;SDS011;35029;50.804;12.866;2022-07-23T10:47:48;9.10;;;6.72;;
49193;SDS011;35029;50.804;12.866;2022-07-23T10:50:26;7.00;;;6.38;;
49193;SDS011;35029;50.804;12.866;2022-07-23T10:58:17;7.20;;;6.40;;
49193;SDS011;35029;50.804;12.866;2022-07-23T11:04:04;8.40;;;7.00;;
49193;SDS011;35029;50.804;12.866;2022-07-23T11:22:35;12.35;;;7.35;;
49193;SDS011;35029;50.804;12.866;2022-07-23T11:25:01;7.50;;;6.55;;
49193;SDS011;35029;50.804;12.866;2022-07-23T11:27:41;10.30;;;7.63;;
49193;SDS011;35029;50.804;12.866;2022-07-23T11:30:08;8.93;;;6.82;;
49193;SDS011;35029;50.804;12.866;2022-07-23T11:33:15;8.00;;;6.97;;
49193;SDS011;35029;50.804;12.866;2022-07-23T11:35:44;7.57;;;6.88;;
49193;SDS011;35029;50.804;12.866;2022-07-23T11:38:18;8.38;;;7.10;;
49193;SDS011;35029;50.804;12.866;2022-07-23T11:40:52;10.30;;;7.97;;
49193;SDS011;35029;50.804;12.866;2022-07-23T11:43:19;10.73;;;7.68;;
49193;SDS011;35029;50.804;12.866;2022-07-23T11:45:50;8.95;;;7.32;;
49193;SDS011;35029;50.804;12.866;2022-07-23T11:50:47;13.52;;;7.93;;
49193;SDS011;35029;50.804;12.866;2022-07-23T11:53:16;9.70;;;7.55;;
49193;SDS011;35029;50.804;12.866;2022-07-23T11:55:46;8.98;;;6.90;;
49193;SDS011;35029;50.804;12.866;2022-07-23T11:58:12;9.77;;;8.60;;
49193;SDS011;35029;50.804;12.866;2022-07-23T12:00:39;8.93;;;7.60;;
49193;SDS011;35029;50.804;12.866;2022-07-23T12:03:06;8.30;;;7.45;;
49193;SDS011;35029;50.804;12.866;2022-07-23T12:05:33;8.63;;;7.72;;
49193;SDS011;35029;50.804;12.866;2022-07-23T12:08:01;10.88;;;7.00;;
49193;SDS011;35029;50.804;12.866;2022-07-23T12:10:36;8.27;;;7.28;;
49193;SDS011;35029;50.804;12.866;2022-07-23T12:13:11;9.00;;;8.10;;
49193;SDS011;35029;50.804;12.866;2022-07-23T12:15:43;9.43;;;6.82;;
49193;SDS011;35029;50.804;12.866;2022-07-23T12:18:18;8.82;;;8.02;;
49193;SDS011;35029;50.804;12.866;2022-07-23T12:20:47;10.80;;;7.90;;
49193;SDS011;35029;50.804;12.866;2022-07-23T12:23:15;8.65;;;7.85;;
49193;SDS011;35029;50.804;12.866;2022-07-23T12:25:42;11.77;;;8.57;;
49193;SDS011;35029;50.804;12.866;2022-07-23T12:28:13;8.20;;;7.18;;
49193;SDS011;35029;50.804;12.866;2022-07-23T12:30:40;16.52;;;8.55;;
49193;SDS011;35029;50.804;12.866;2022-07-23T12:33:09;10.60;;;9.18;;
49193;SDS011;35029;50.804;12.866;2022-07-23T12:35:42;9.70;;;8.80;;
49193;SDS011;35029;50.804;12.866;2022-07-23T12:38:11;9.43;;;8.48;;
49193;SDS011;35029;50.804;12.866;2022-07-23T12:40:44;8.65;;;7.85;;
49193;SDS011;35029;50.804;12.866;2022-07-23T12:43:20;11.48;;;9.02;;
49193;SDS011;35029;50.804;12.866;2022-07-23T12:46:02;11.02;;;10.02;;
49193;SDS011;35029;50.804;12.866;2022-07-23T12:48:34;10.95;;;9.80;;
49193;SDS011;35029;50.804;12.866;2022-07-23T12:51:18;10.98;;;9.65;;
49193;SDS011;35029;50.804;12.866;2022-07-23T12:54:13;12.38;;;10.25;;
49193;SDS011;35029;50.804;12.866;2022-07-23T12:56:39;9.27;;;8.35;;
49193;SDS011;35029;50.804;12.866;2022-07-23T12:59:10;9.90;;;8.77;;
49193;SDS011;35029;50.804;12.866;2022-07-23T13:01:39;9.50;;;8.45;;
49193;SDS011;35029;50.804;12.866;2022-07-23T13:04:10;10.82;;;9.18;;
49193;SDS011;35029;50.804;12.866;2022-07-23T13:06:47;9.57;;;8.65;;
49193;SDS011;35029;50.804;12.866;2022-07-23T13:09:15;10.45;;;8.75;;
49193;SDS011;35029;50.804;12.866;2022-07-23T13:11:43;9.93;;;7.57;;
49193;SDS011;35029;50.804;12.866;2022-07-23T13:14:10;8.50;;;7.03;;
49193;SDS011;35029;50.804;12.866;2022-07-23T13:16:37;8.55;;;7.75;;
49193;SDS011;35029;50.804;12.866;2022-07-23T13:19:02;9.30;;;7.78;;
49193;SDS011;35029;50.804;12.866;2022-07-23T13:21:28;8.00;;;7.20;;
49193;SDS011;35029;50.804;12.866;2022-07-23T13:23:54;10.25;;;8.30;;
49193;SDS011;35029;50.804;12.866;2022-07-23T13:26:20;9.20;;;8.20;;
49193;SDS011;35029;50.804;12.866;2022-07-23T13:28:46;10.15;;;9.05;;
49193;SDS011;35029;50.804;12.866;2022-07-23T13:31:12;8.70;;;7.82;;
49193;SDS011;35029;50.804;12.866;2022-07-23T13:33:38;9.80;;;8.90;;
49193;SDS011;35029;50.804;12.866;2022-07-23T13:36:03;10.82;;;9.82;;
49193;SDS011;35029;50.804;12.866;2022-07-23T13:38:29;9.77;;;8.77;;
49193;SDS011;35029;50.804;12.866;2022-07-23T13:40:55;9.75;;;8.85;;
49193;SDS011;35029;50.804;12.866;2022-07-23T13:43:21;9.02;;;7.35;;
49193;SDS011;35029;50.804;12.866;2022-07-23T13:45:48;11.23;;;10.13;;
49193;SDS011;35029;50.804;12.866;2022-07-23T13:48:15;9.23;;;8.40;;
49193;SDS011;35029;50.804;12.866;2022-07-23T13:50:41;10.35;;;8.75;;
49193;SDS011;35029;50.804;12.866;2022-07-23T13:53:08;9.40;;;8.40;;
49193;SDS011;35029;50.804;12.866;2022-07-23T13:55:39;9.07;;;8.18;;
49193;SDS011;35029;50.804;12.866;2022-07-23T13:58:06;9.35;;;8.40;;
49193;SDS011;35029;50.804;12.866;2022-07-23T14:00:33;8.88;;;7.97;;
49193;SDS011;35029;50.804;12.866;2022-07-23T14:03:00;8.98;;;8.05;;
49193;SDS011;35029;50.804;12.866;2022-07-23T14:05:25;10.55;;;7.68;;
49193;SDS011;35029;50.804;12.866;2022-07-23T14:07:52;10.85;;;8.93;;
49193;SDS011;35029;50.804;12.866;2022-07-23T14:10:19;10.85;;;8.77;;
49193;SDS011;35029;50.804;12.866;2022-07-23T14:12:47;9.75;;;8.75;;
49193;SDS011;35029;50.804;12.866;2022-07-23T14:15:14;11.45;;;7.75;;
49193;SDS011;35029;50.804;12.866;2022-07-23T14:17:41;8.15;;;7.25;;
49193;SDS011;35029;50.804;12.866;2022-07-23T14:20:09;11.00;;;8.20;;
49193;SDS011;35029;50.804;12.866;2022-07-23T14:22:36;8.07;;;7.28;;
49193;SDS011;35029;50.804;12.866;2022-07-23T14:25:02;8.55;;;7.75;;
49193;SDS011;35029;50.804;12.866;2022-07-23T14:27:29;8.63;;;7.82;;
49193;SDS011;35029;50.804;12.866;2022-07-23T14:29:54;8.57;;;7.78;;
49193;SDS011;35029;50.804;12.866;2022-07-23T14:32:20;9.30;;;8.40;;
49193;SDS011;35029;50.804;12.866;2022-07-23T14:34:46;9.25;;;8.30;;
49193;SDS011;35029;50.804;12.866;2022-07-23T14:37:12;10.27;;;8.82;;
49193;SDS011;35029;50.804;12.866;2022-07-23T14:39:39;12.20;;;10.48;;
49193;SDS011;35029;50.804;12.866;2022-07-23T14:42:05;9.95;;;9.07;;
49193;SDS011;35029;50.804;12.866;2022-07-23T14:44:34;10.93;;;9.80;;
49193;SDS011;35029;50.804;12.866;2022-07-23T14:47:00;9.48;;;8.57;;
49193;SDS011;35029;50.804;12.866;2022-07-23T14:49:26;9.88;;;8.88;;
49193;SDS011;35029;50.804;12.866;2022-07-23T14:51:52;11.50;;;10.32;;
49193;SDS011;35029;50.804;12.866;2022-07-23T14:54:19;11.27;;;10.23;;
49193;SDS011;35029;50.804;12.866;2022-07-23T14:56:45;11.60;;;10.60;;
49193;SDS011;35029;50.804;12.866;2022-07-23T14:59:12;11.43;;;10.32;;
49193;SDS011;35029;50.804;12.866;2022-07-23T15:01:38;11.40;;;10.27;;
49193;SDS011;35029;50.804;12.866;2022-07-23T15:04:04;11.02;;;9.95;;
49193;SDS011;35029;50.804;12.866;2022-07-23T15:06:31;12.88;;;10.35;;
49193;SDS011;35029;50.804;12.866;2022-07-23T15:08:57;11.55;;;10.55;;
49193;SDS011;35029;50.804;12.866;2022-07-23T15:11:22;12.90;;;11.70;;
49193;SDS011;35029;50.804;12.866;2022-07-23T15:13:48;12.60;;;11.43;;
49193;SDS011;35029;50.804;12.866;2022-07-23T15:16:14;12.85;;;11.65;;
49193;SDS011;35029;50.804;12.866;2022-07-23T15:18:39;13.07;;;11.93;;
49193;SDS011;35029;50.804;12.866;2022-07-23T15:21:05;12.43;;;11.32;;
49193;SDS011;35029;50.804;12.866;2022-07-23T15:23:30;13.75;;;12.48;;
49193;SDS011;35029;50.804;12.866;2022-07-23T15:25:56;11.88;;;10.77;;